Time;durP1;ratioP1;P1;durP2;ratioP2;P2;SDS_P1;SDS_P2;PMS_P1;PMS_P2;Temp;Humidity;BMP_temperature;BMP_pressure;BME280_temperature;BME280_humidity;BME280_pressure;Samples;Min_cycle;Max_cycle;Signal;HPM_P1;HPM_P2
2023/12/18 00:01:45;;;;;;;27.52;9.55;;;;;;;4.80;100.00;103166.34;4883089;29;20016;-79
2023/12/18 00:04:10;;;;;;;24.58;9.50;;;;;;;4.83;100.00;103163.63;4902144;29;20024;-80
2023/12/18 00:06:35;;;;;;;22.20;9.77;;;;;;;4.86;100.00;103158.25;4901939;29;20515;-80
2023/12/18 00:09:00;;;;;;;23.35;10.05;;;;;;;4.88;100.00;103160.91;4889290;29;20111;-80
2023/12/18 00:11:29;;;;;;;24.00;11.30;;;;;;;4.89;100.00;103157.31;4882406;29;20024;-80
2023/12/18 00:13:54;;;;;;;24.58;10.57;;;;;;;4.92;100.00;103167.06;4897450;29;20525;-80
2023/12/18 00:16:19;;;;;;;25.17;11.40;;;;;;;4.96;100.00;103172.34;4901430;29;20039;-80
2023/12/18 00:18:44;;;;;;;26.88;10.68;;;;;;;4.99;100.00;103167.00;4898223;29;20035;-80
2023/12/18 00:21:10;;;;;;;23.90;10.52;;;;;;;5.01;100.00;103157.19;4883026;29;20029;-80
2023/12/18 00:23:35;;;;;;;24.45;10.52;;;;;;;5.02;100.00;103147.41;4885994;29;20420;-80
2023/12/18 00:26:00;;;;;;;23.08;11.05;;;;;;;5.04;100.00;103150.94;4886433;29;20025;-86
2023/12/18 00:28:26;;;;;;;28.17;10.70;;;;;;;5.04;100.00;103148.28;4883256;29;20024;-85
2023/12/18 00:30:51;;;;;;;22.40;10.15;;;;;;;5.05;100.00;103152.69;4898199;29;20036;-86
2023/12/18 00:33:17;;;;;;;24.27;11.18;;;;;;;5.04;100.00;103145.63;4883028;29;20029;-85
2023/12/18 00:35:42;;;;;;;25.63;11.25;;;;;;;5.04;100.00;103148.28;4885156;29;20032;-80
2023/12/18 00:38:07;;;;;;;24.08;10.65;;;;;;;5.06;100.00;103146.47;4918219;29;20127;-78
2023/12/18 00:40:33;;;;;;;25.50;11.23;;;;;;;5.09;100.00;103141.09;4916586;29;20040;-77
2023/12/18 00:42:58;;;;;;;30.92;12.77;;;;;;;5.11;100.00;103139.31;4902841;29;20020;-79
2023/12/18 00:45:23;;;;;;;31.50;12.40;;;;;;;5.14;100.00;103149.00;4899391;29;20027;-79
2023/12/18 00:47:49;;;;;;;26.88;12.10;;;;;;;5.15;100.00;103142.78;4901178;29;20036;-78
2023/12/18 00:50:14;;;;;;;24.75;11.75;;;;;;;5.14;100.00;103133.94;4916202;29;20485;-78
2023/12/18 00:52:39;;;;;;;26.38;11.02;;;;;;;5.16;100.00;103144.56;4904634;29;20032;-79
2023/12/18 00:55:06;;;;;;;27.15;11.65;;;;;;;5.16;100.00;103134.78;4911984;29;20047;-78
2023/12/18 00:57:32;;;;;;;24.45;11.90;;;;;;;5.17;100.00;103152.53;4914257;29;20029;-81
2023/12/18 00:59:57;;;;;;;25.42;11.77;;;;;;;5.19;100.00;103147.19;4896751;29;20032;-80
2023/12/18 01:02:23;;;;;;;25.25;11.98;;;;;;;5.18;100.00;103148.97;4912418;29;20032;-77
2023/12/18 01:04:48;;;;;;;26.65;12.82;;;;;;;5.18;100.00;103138.31;4908641;29;20520;-79
2023/12/18 01:07:13;;;;;;;24.90;11.85;;;;;;;5.16;100.00;103125.91;4915559;29;20115;-80
2023/12/18 01:09:39;;;;;;;23.85;11.75;;;;;;;5.14;100.00;103125.94;4909614;29;20088;-78
2023/12/18 01:12:04;;;;;;;25.90;12.05;;;;;;;5.17;100.00;103130.31;4917162;29;20084;-81
2023/12/18 01:14:30;;;;;;;25.23;12.52;;;;;;;5.18;100.00;103127.66;4896141;29;20028;-79
2023/12/18 01:16:55;;;;;;;29.23;12.77;;;;;;;5.19;100.00;103133.84;4911263;29;20460;-79
2023/12/18 01:19:21;;;;;;;23.42;12.23;;;;;;;5.23;100.00;103120.47;4921297;29;20056;-80
2023/12/18 01:21:46;;;;;;;29.88;13.60;;;;;;;5.25;100.00;103118.63;4911032;29;20066;-78
2023/12/18 01:24:12;;;;;;;30.38;13.45;;;;;;;5.26;100.00;103108.88;4916216;29;20024;-81
2023/12/18 01:26:37;;;;;;;28.33;13.13;;;;;;;5.27;100.00;103099.97;4914915;29;20032;-80
2023/12/18 01:29:04;;;;;;;26.33;13.25;;;;;;;5.29;100.00;103116.81;4913572;29;20043;-80
2023/12/18 01:31:29;;;;;;;27.52;14.35;;;;;;;5.31;100.00;103116.81;4913336;29;20084;-78
2023/12/18 01:33:54;;;;;;;31.00;14.15;;;;;;;5.31;100.00;103123.00;4917843;29;20027;-77
2023/12/18 01:36:20;;;;;;;31.48;15.32;;;;;;;5.31;100.00;103123.00;4910391;29;20413;-81
2023/12/18 01:38:46;;;;;;;27.67;13.57;;;;;;;5.34;100.00;103119.41;4897809;29;20083;-79
2023/12/18 01:41:11;;;;;;;27.52;13.68;;;;;;;5.34;100.00;103117.63;4899195;29;20032;-79
2023/12/18 01:43:39;;;;;;;28.33;12.73;;;;;;;5.36;100.00;103122.94;4917714;29;20031;-79
2023/12/18 01:46:05;;;;;;;28.15;13.25;;;;;;;5.37;100.00;103119.38;4889123;29;20042;-78
2023/12/18 01:48:32;;;;;;;33.08;15.25;;;;;;;5.37;100.00;103119.38;4914829;29;20052;-78
2023/12/18 01:50:59;;;;;;;28.17;13.52;;;;;;;5.35;100.00;103127.41;4915077;29;20115;-78
2023/12/18 01:53:27;;;;;;;26.83;13.38;;;;;;;5.35;100.00;103130.06;4914141;29;20567;-81
2023/12/18 01:55:54;;;;;;;29.88;14.60;;;;;;;5.38;100.00;103126.47;4911374;29;20051;-84
2023/12/18 01:58:20;;;;;;;29.52;13.68;;;;;;;5.40;100.00;103132.66;4899791;29;20175;-84
2023/12/18 02:00:46;;;;;;;29.73;14.02;;;;;;;5.37;100.00;103128.28;4888727;29;20040;-79
2023/12/18 02:03:12;;;;;;;26.33;13.15;;;;;;;5.39;100.00;103113.13;4888270;29;20043;-80
2023/12/18 02:05:40;;;;;;;28.58;13.43;;;;;;;5.40;100.00;103112.22;4883022;29;20024;-80
2023/12/18 02:08:06;;;;;;;25.63;12.82;;;;;;;5.40;100.00;103112.22;4888404;29;20063;-80
2023/12/18 02:10:32;;;;;;;27.20;13.13;;;;;;;5.42;100.00;103104.19;4889401;29;20504;-80
2023/12/18 02:12:57;;;;;;;29.70;13.85;;;;;;;5.43;100.00;103105.94;4904322;29;20638;-80
2023/12/18 02:15:23;;;;;;;28.23;13.65;;;;;;;5.43;100.00;103108.59;4904070;29;20413;-80
2023/12/18 02:17:48;;;;;;;31.50;14.13;;;;;;;5.44;100.00;103105.03;4899195;29;20036;-80
2023/12/18 02:20:13;;;;;;;30.33;15.00;;;;;;;5.43;100.00;103109.50;4901078;29;20035;-79
2023/12/18 02:22:48;;;;;;;28.48;14.32;;;;;;;5.45;100.00;103109.47;4902817;29;20055;-80
2023/12/18 02:25:17;;;;;;;29.00;13.38;;;;;;;5.43;100.00;103105.94;4893637;29;20068;-80
2023/12/18 02:27:45;;;;;;;30.73;14.13;;;;;;;5.44;100.00;103102.38;4887499;29;20482;-80
2023/12/18 02:30:19;;;;;;;27.60;14.43;;;;;;;5.45;100.00;103105.91;4896320;29;20123;-80
2023/12/18 02:32:45;;;;;;;26.60;14.90;;;;;;;5.44;100.00;103102.38;4879737;29;20028;-79
2023/12/18 02:35:10;;;;;;;26.35;12.77;;;;;;;5.42;100.00;103107.72;4882904;29;20032;-80
2023/12/18 02:37:36;;;;;;;27.10;13.30;;;;;;;5.42;100.00;103098.88;4882855;29;20052;-80
2023/12/18 02:40:02;;;;;;;27.73;14.35;;;;;;;5.43;100.00;103100.59;4906933;29;20134;-80
2023/12/18 02:42:27;;;;;;;30.83;14.80;;;;;;;5.43;100.00;103095.25;4884400;29;20025;-80
2023/12/18 02:44:54;;;;;;;30.55;14.32;;;;;;;5.45;100.00;103098.81;4905609;29;20384;-80
2023/12/18 02:47:19;;;;;;;25.42;12.98;;;;;;;5.47;100.00;103101.44;4903901;29;20527;-80
2023/12/18 02:49:45;;;;;;;27.30;13.40;;;;;;;5.49;100.00;103095.19;4901407;29;20035;-80
2023/12/18 02:52:10;;;;;;;28.45;14.73;;;;;;;5.47;100.00;103086.31;4886588;29;20112;-80
2023/12/18 02:54:36;;;;;;;31.45;14.32;;;;;;;5.47;100.00;103081.00;4900311;29;20043;-80
2023/12/18 02:57:02;;;;;;;28.33;15.57;;;;;;;5.48;100.00;103092.56;4905542;29;20024;-80
2023/12/18 02:59:27;;;;;;;28.02;14.02;;;;;;;5.46;100.00;103084.59;4903323;29;20138;-80
2023/12/18 03:01:52;;;;;;;31.35;14.57;;;;;;;5.44;100.00;103083.69;4900192;29;20059;-80
2023/12/18 03:04:18;;;;;;;27.25;13.80;;;;;;;5.45;100.00;103069.47;4897876;29;20119;-80
2023/12/18 03:06:45;;;;;;;24.88;13.25;;;;;;;5.44;100.00;103070.38;4890668;29;20326;-79
2023/12/18 03:09:11;;;;;;;26.60;13.23;;;;;;;5.43;100.00;103063.25;4905619;29;20031;-80
2023/12/18 03:11:36;;;;;;;27.88;14.52;;;;;;;5.45;100.00;103066.81;4882855;29;20028;-81
2023/12/18 03:14:01;;;;;;;28.80;15.65;;;;;;;5.45;100.00;103052.56;4882687;29;20025;-80
2023/12/18 03:16:27;;;;;;;31.40;13.73;;;;;;;5.43;100.00;103063.25;4899392;29;20032;-80
2023/12/18 03:18:52;;;;;;;32.05;15.35;;;;;;;5.43;100.00;103068.59;4899556;29;20028;-80
2023/12/18 03:21:17;;;;;;;27.20;13.20;;;;;;;5.43;100.00;103057.94;4883747;29;20591;-80
2023/12/18 03:23:42;;;;;;;28.58;14.15;;;;;;;5.42;100.00;103065.06;4903755;29;20112;-80
2023/12/18 03:26:11;;;;;;;29.00;14.35;;;;;;;5.42;100.00;103070.41;4886654;29;20028;-80
2023/12/18 03:28:36;;;;;;;31.15;14.48;;;;;;;5.39;100.00;103072.25;4901726;29;20588;-80
2023/12/18 03:31:01;;;;;;;27.98;14.93;;;;;;;5.39;100.00;103065.13;4883548;29;20211;-80
2023/12/18 03:33:26;;;;;;;28.83;15.50;;;;;;;5.42;100.00;103064.19;4900172;29;20114;-79
2023/12/18 03:35:52;;;;;;;29.85;16.00;;;;;;;5.41;100.00;103065.97;4899836;29;20460;-80
2023/12/18 03:38:17;;;;;;;28.55;14.63;;;;;;;5.43;100.00;103064.16;4881990;29;20052;-80
2023/12/18 03:40:42;;;;;;;28.95;13.82;;;;;;;5.45;100.00;103068.56;4884668;29;20663;-80
2023/12/18 03:43:08;;;;;;;26.73;14.90;;;;;;;5.45;100.00;103063.25;4902942;29;20047;-80
2023/12/18 03:45:33;;;;;;;33.25;15.68;;;;;;;5.45;100.00;103072.16;4884440;29;20480;-80
2023/12/18 03:47:58;;;;;;;30.83;14.55;;;;;;;5.46;100.00;103079.25;4900775;29;20119;-80
2023/12/18 03:50:23;;;;;;;31.92;16.65;;;;;;;5.46;100.00;103073.91;4878793;29;20033;-80
2023/12/18 03:52:49;;;;;;;31.20;16.17;;;;;;;5.50;100.00;103072.06;4887313;29;20294;-80
2023/12/18 03:55:14;;;;;;;27.25;14.10;;;;;;;5.49;100.00;103072.97;4904268;29;20024;-79
2023/12/18 03:57:39;;;;;;;30.38;15.60;;;;;;;5.49;100.00;103073.84;4886068;29;20055;-80
2023/12/18 04:00:06;;;;;;;28.73;14.20;;;;;;;5.49;100.00;103073.84;4902706;29;20397;-80
2023/12/18 04:02:31;;;;;;;31.35;15.68;;;;;;;5.49;100.00;103076.53;4903789;29;20068;-81
2023/12/18 04:04:56;;;;;;;40.13;15.65;;;;;;;5.50;100.00;103080.94;4905058;29;20377;-80
2023/12/18 04:07:22;;;;;;;27.42;14.48;;;;;;;5.52;100.00;103065.81;4901506;29;20063;-80
2023/12/18 04:09:47;;;;;;;35.03;17.20;;;;;;;5.52;100.00;103075.56;4903871;29;20055;-80
2023/12/18 04:12:13;;;;;;;29.23;15.48;;;;;;;5.52;100.00;103065.81;4883122;29;20024;-79
2023/12/18 04:14:38;;;;;;;29.70;15.13;;;;;;;5.53;100.00;103062.22;4878923;29;20076;-80
2023/12/18 04:17:03;;;;;;;26.48;14.05;;;;;;;5.53;100.00;103061.34;4907605;29;20067;-80
2023/12/18 04:19:28;;;;;;;35.60;15.18;;;;;;;5.52;100.00;103063.13;4908548;29;20119;-80
2023/12/18 04:21:54;;;;;;;29.08;15.35;;;;;;;5.53;100.00;103061.34;4907394;29;20409;-80
2023/12/18 04:24:19;;;;;;;33.50;16.17;;;;;;;5.52;100.00;103048.91;4905963;29;20068;-80
2023/12/18 04:26:45;;;;;;;28.42;15.15;;;;;;;5.51;100.00;103056.03;4911781;29;20063;-80
2023/12/18 04:29:11;;;;;;;31.33;15.55;;;;;;;5.49;100.00;103052.53;4896857;29;20044;-80
2023/12/18 04:31:36;;;;;;;29.60;15.43;;;;;;;5.47;100.00;103051.66;4893945;29;20469;-80
2023/12/18 04:34:01;;;;;;;30.80;15.98;;;;;;;5.48;100.00;103053.41;4897504;29;20484;-80
2023/12/18 04:36:27;;;;;;;30.95;16.05;;;;;;;5.48;100.00;103055.22;4903921;29;20040;-80
2023/12/18 04:38:52;;;;;;;29.92;15.63;;;;;;;5.47;100.00;103048.97;4890762;29;20074;-80
2023/12/18 04:41:18;;;;;;;33.72;16.27;;;;;;;5.47;100.00;103038.31;4892459;29;20137;-80
2023/12/18 04:43:44;;;;;;;33.08;15.80;;;;;;;5.48;100.00;103044.56;4898002;29;20128;-80
2023/12/18 04:46:09;;;;;;;32.50;15.88;;;;;;;5.47;100.00;103051.66;4896477;29;20119;-80
2023/12/18 04:48:34;;;;;;;30.08;15.68;;;;;;;5.50;100.00;103056.06;4890226;29;20417;-79
2023/12/18 04:50:59;;;;;;;29.83;14.60;;;;;;;5.51;100.00;103056.03;4911099;29;20036;-80
2023/12/18 04:53:25;;;;;;;29.38;16.15;;;;;;;5.51;100.00;103053.38;4893079;29;20159;-80
2023/12/18 04:55:50;;;;;;;34.90;17.02;;;;;;;5.54;100.00;103044.44;4893872;29;20096;-80
2023/12/18 04:58:15;;;;;;;32.00;15.55;;;;;;;5.54;100.00;103041.78;4908235;29;20021;-80
2023/12/18 05:00:41;;;;;;;33.75;15.70;;;;;;;5.52;100.00;103040.91;4890636;29;20036;-79
2023/12/18 05:03:06;;;;;;;31.85;15.35;;;;;;;5.54;100.00;103042.63;4889979;29;20024;-79
2023/12/18 05:05:31;;;;;;;28.38;14.30;;;;;;;5.54;100.00;103042.63;4909356;29;20065;-80
2023/12/18 05:07:56;;;;;;;28.60;15.75;;;;;;;5.54;100.00;103045.31;4915295;29;20036;-80
2023/12/18 05:10:22;;;;;;;33.75;15.70;;;;;;;5.52;100.00;103035.56;4915960;29;20256;-80
2023/12/18 05:12:47;;;;;;;31.42;15.07;;;;;;;5.54;100.00;103041.78;4893161;29;20080;-80
2023/12/18 05:15:13;;;;;;;32.05;16.27;;;;;;;5.54;100.00;103039.97;4914147;29;20040;-80
2023/12/18 05:17:41;;;;;;;30.15;14.27;;;;;;;5.54;100.00;103041.78;4893986;29;20930;-80
2023/12/18 05:20:08;;;;;;;35.17;17.27;;;;;;;5.53;100.00;103034.66;4910679;29;20039;-81
2023/12/18 05:22:34;;;;;;;29.60;16.23;;;;;;;5.53;100.00;103016.00;4909476;29;20028;-80
2023/12/18 05:25:00;;;;;;;32.30;15.27;;;;;;;5.53;100.00;103024.88;4902305;29;20068;-80
2023/12/18 05:27:25;;;;;;;32.65;16.50;;;;;;;5.53;100.00;103027.53;4906569;29;20040;-80
2023/12/18 05:29:50;;;;;;;33.95;16.33;;;;;;;5.53;100.00;103032.88;4883837;29;20496;-80
2023/12/18 05:32:15;;;;;;;34.13;16.58;;;;;;;5.53;100.00;103032.88;4897919;29;20044;-80
2023/12/18 05:34:41;;;;;;;34.47;16.50;;;;;;;5.53;100.00;103032.88;4903832;29;20084;-80
2023/12/18 05:37:06;;;;;;;32.17;17.05;;;;;;;5.55;100.00;103040.84;4883005;29;20123;-80
2023/12/18 05:39:32;;;;;;;31.30;17.52;;;;;;;5.55;100.00;103044.41;4893630;29;20048;-80
2023/12/18 05:41:57;;;;;;;32.17;16.13;;;;;;;5.56;100.00;103055.94;4878585;29;20107;-80
2023/12/18 05:44:22;;;;;;;30.40;15.18;;;;;;;5.54;100.00;103050.66;4885593;29;20036;-80
2023/12/18 05:46:48;;;;;;;31.70;15.93;;;;;;;5.54;100.00;103053.31;4899499;29;20143;-80
2023/12/18 05:49:13;;;;;;;30.45;16.77;;;;;;;5.53;100.00;103054.22;4873933;29;20048;-80
2023/12/18 05:51:38;;;;;;;33.10;15.73;;;;;;;5.54;100.00;103061.31;4880641;29;20115;-79
2023/12/18 05:54:04;;;;;;;28.13;15.98;;;;;;;5.55;100.00;103054.19;4899293;29;20032;-79
2023/12/18 05:56:29;;;;;;;28.63;15.00;;;;;;;5.53;100.00;103054.22;4889815;29;20054;-80
2023/12/18 05:58:55;;;;;;;33.65;16.92;;;;;;;5.55;100.00;103047.06;4884530;29;20050;-80
2023/12/18 06:01:21;;;;;;;28.05;15.90;;;;;;;5.57;100.00;103047.06;4879035;29;20076;-79
2023/12/18 06:03:46;;;;;;;36.50;15.90;;;;;;;5.57;100.00;103044.38;4898696;29;20496;-80
2023/12/18 06:06:12;;;;;;;36.55;17.80;;;;;;;5.57;100.00;103039.91;4887782;29;20527;-80
2023/12/18 06:08:37;;;;;;;33.45;17.10;;;;;;;5.58;100.00;103043.50;4899448;29;20520;-80
2023/12/18 06:11:03;;;;;;;34.55;15.45;;;;;;;5.58;100.00;103041.69;4874123;29;20067;-80
2023/12/18 06:13:29;;;;;;;32.83;16.95;;;;;;;5.60;100.00;103044.31;4884182;29;20029;-80
2023/12/18 06:15:54;;;;;;;31.67;16.67;;;;;;;5.60;100.00;103049.66;4870812;29;20029;-80
2023/12/18 06:18:20;;;;;;;30.80;15.35;;;;;;;5.58;100.00;103041.69;4872489;29;20047;-80
2023/12/18 06:20:45;;;;;;;30.20;15.80;;;;;;;5.58;100.00;103051.50;4880166;29;20036;-80
2023/12/18 06:23:10;;;;;;;31.40;15.93;;;;;;;5.58;100.00;103043.50;4894530;29;20033;-79
2023/12/18 06:25:35;;;;;;;31.83;16.33;;;;;;;5.57;100.00;103050.59;4887840;29;20089;-79
2023/12/18 06:28:01;;;;;;;32.97;15.68;;;;;;;5.58;100.00;103043.50;4894748;29;20307;-80
2023/12/18 06:30:26;;;;;;;32.08;16.67;;;;;;;5.55;100.00;103039.06;4882811;29;20037;-79
2023/12/18 06:32:51;;;;;;;35.35;17.33;;;;;;;5.56;100.00;103042.63;4888259;29;20036;-80
2023/12/18 06:35:17;;;;;;;33.47;16.92;;;;;;;5.56;100.00;103042.63;4897994;29;20032;-80
2023/12/18 06:37:43;;;;;;;33.75;16.85;;;;;;;5.56;100.00;103037.28;4884487;29;20196;-80
2023/12/18 06:40:08;;;;;;;31.40;16.27;;;;;;;5.56;100.00;103039.94;4909184;29;20021;-80
2023/12/18 06:42:34;;;;;;;33.80;16.75;;;;;;;5.56;100.00;103034.63;4909990;29;20389;-80
2023/12/18 06:44:59;;;;;;;34.20;17.25;;;;;;;5.56;100.00;103040.84;4887584;29;20057;-80
2023/12/18 06:47:24;;;;;;;28.67;16.13;;;;;;;5.55;100.00;103031.06;4912070;29;20040;-80
2023/12/18 06:49:50;;;;;;;29.65;15.70;;;;;;;5.54;100.00;103039.97;4911043;29;20040;-81
2023/12/18 06:52:15;;;;;;;30.55;14.88;;;;;;;5.53;100.00;103035.53;4915839;29;20071;-80
2023/12/18 06:54:40;;;;;;;33.58;17.30;;;;;;;5.52;100.00;103036.47;4893815;29;20055;-80
2023/12/18 06:57:06;;;;;;;30.20;16.48;;;;;;;5.52;100.00;103041.81;4915030;29;20028;-80
2023/12/18 06:59:31;;;;;;;34.47;16.05;;;;;;;5.54;100.00;103034.63;4897568;29;20040;-80
2023/12/18 07:01:56;;;;;;;31.05;16.92;;;;;;;5.55;100.00;103041.75;4912892;29;20029;-80
2023/12/18 07:04:22;;;;;;;29.17;15.07;;;;;;;5.57;100.00;103039.06;4905984;29;20429;-80
2023/12/18 07:06:47;;;;;;;34.72;17.63;;;;;;;5.59;100.00;103038.13;4885169;29;20039;-79
2023/12/18 07:09:12;;;;;;;31.90;16.00;;;;;;;5.57;100.00;103031.91;4910915;29;20088;-80
2023/12/18 07:11:37;;;;;;;34.10;17.23;;;;;;;5.57;100.00;103039.91;4908635;29;20028;-79
2023/12/18 07:14:03;;;;;;;35.47;17.85;;;;;;;5.57;100.00;103037.25;4906930;29;20028;-80
2023/12/18 07:16:28;;;;;;;34.60;15.35;;;;;;;5.56;100.00;103040.84;4898628;29;20040;-81
2023/12/18 07:18:55;;;;;;;33.45;16.25;;;;;;;5.56;100.00;103045.28;4900022;29;20029;-80
2023/12/18 07:21:20;;;;;;;30.77;15.90;;;;;;;5.56;100.00;103048.84;4897396;29;20138;-80
2023/12/18 07:23:46;;;;;;;34.08;16.48;;;;;;;5.57;100.00;103045.25;4897690;29;20064;-80
2023/12/18 07:26:13;;;;;;;33.50;16.48;;;;;;;5.57;100.00;103057.72;4895301;29;20178;-80
2023/12/18 07:28:42;;;;;;;30.73;16.95;;;;;;;5.58;100.00;103057.69;4885850;29;20043;-79
2023/12/18 07:31:08;;;;;;;34.10;17.20;;;;;;;5.62;100.00;103054.97;4907160;29;20115;-79
2023/12/18 07:33:35;;;;;;;29.58;15.82;;;;;;;5.60;100.00;103061.19;4893747;29;20025;-79
2023/12/18 07:36:01;;;;;;;37.90;17.73;;;;;;;5.60;100.00;103055.88;4895201;29;20607;-80
2023/12/18 07:38:26;;;;;;;34.42;16.50;;;;;;;5.62;100.00;103060.31;4896282;29;20047;-79
2023/12/18 07:40:51;;;;;;;36.72;17.40;;;;;;;5.59;100.00;103056.81;4905145;29;20083;-80
2023/12/18 07:43:17;;;;;;;31.50;16.85;;;;;;;5.61;100.00;103051.44;4906870;29;20044;-79
2023/12/18 07:45:42;;;;;;;31.73;17.15;;;;;;;5.63;100.00;103059.41;4883119;29;20028;-80
2023/12/18 07:48:07;;;;;;;33.28;16.13;;;;;;;5.64;100.00;103051.38;4907298;29;20056;-80
2023/12/18 07:50:33;;;;;;;35.10;16.55;;;;;;;5.68;100.00;103046.84;4889045;29;20032;-80
2023/12/18 07:52:58;;;;;;;36.42;16.27;;;;;;;5.68;100.00;103052.19;4895573;29;20032;-79
2023/12/18 07:55:23;;;;;;;32.35;17.48;;;;;;;5.68;100.00;103045.09;4907804;29;20061;-80
2023/12/18 07:57:48;;;;;;;33.90;17.00;;;;;;;5.64;100.00;103038.03;4902194;29;20028;-80
2023/12/18 08:00:14;;;;;;;32.67;17.67;;;;;;;5.66;100.00;103046.00;4897991;29;20037;-80
2023/12/18 08:02:40;;;;;;;32.42;17.48;;;;;;;5.67;100.00;103053.13;4906531;29;20029;-80
2023/12/18 08:05:05;;;;;;;34.47;16.65;;;;;;;5.67;100.00;103050.44;4910491;29;20067;-80
2023/12/18 08:07:31;;;;;;;32.47;16.92;;;;;;;5.67;100.00;103034.44;4913580;29;20072;-80
2023/12/18 08:09:56;;;;;;;35.05;17.25;;;;;;;5.66;100.00;103038.00;4890667;29;20020;-79
2023/12/18 08:12:22;;;;;;;36.42;16.77;;;;;;;5.65;100.00;103031.81;4912600;29;20516;-79
2023/12/18 08:14:47;;;;;;;29.77;17.50;;;;;;;5.66;100.00;103035.34;4905296;29;20187;-80
2023/12/18 08:17:15;;;;;;;33.00;16.27;;;;;;;5.68;100.00;103037.09;4905361;29;20030;-80
2023/12/18 08:19:49;;;;;;;36.97;17.90;;;;;;;5.69;100.00;103028.16;4888462;29;20035;-79
2023/12/18 08:22:15;;;;;;;31.52;18.02;;;;;;;5.70;100.00;103027.25;4909160;29;20039;-80
2023/12/18 08:24:41;;;;;;;33.05;16.27;;;;;;;5.71;100.00;103026.34;4890717;29;20041;-80
2023/12/18 08:27:07;;;;;;;38.90;16.92;;;;;;;5.74;100.00;103031.63;4908276;29;20024;-79
2023/12/18 08:29:32;;;;;;;32.72;17.27;;;;;;;5.76;100.00;103031.59;4904586;29;20029;-80
2023/12/18 08:31:57;;;;;;;36.50;19.50;;;;;;;5.76;100.00;103023.59;4908487;29;20028;-80
2023/12/18 08:34:24;;;;;;;31.65;17.80;;;;;;;5.77;100.00;103025.38;4905066;29;20032;-79
2023/12/18 08:36:49;;;;;;;34.40;16.77;;;;;;;5.80;100.00;103033.31;4909423;29;20032;-80
2023/12/18 08:39:15;;;;;;;36.80;17.20;;;;;;;5.79;100.00;103023.53;4886794;29;20052;-80
2023/12/18 08:41:42;;;;;;;30.55;16.13;;;;;;;5.80;100.00;103032.41;4909053;29;20036;-80
2023/12/18 08:44:09;;;;;;;33.42;15.98;;;;;;;5.80;100.00;103024.41;4904337;29;20028;-80
2023/12/18 08:46:35;;;;;;;32.60;16.17;;;;;;;5.80;100.00;103025.31;4913034;29;20095;-79
2023/12/18 08:49:01;;;;;;;33.78;17.77;;;;;;;5.81;100.00;103029.72;4908061;29;20058;-79
2023/12/18 08:51:26;;;;;;;35.33;16.90;;;;;;;5.83;100.00;103019.91;4905148;29;20024;-80
2023/12/18 08:53:54;;;;;;;33.08;16.85;;;;;;;5.86;100.00;103024.31;4886163;29;20024;-79
2023/12/18 08:56:19;;;;;;;36.33;17.02;;;;;;;5.86;100.00;103019.84;4888038;29;20036;-80
2023/12/18 08:58:45;;;;;;;30.75;15.95;;;;;;;5.85;100.00;103018.09;4904334;29;20048;-80
2023/12/18 09:01:10;;;;;;;36.03;16.42;;;;;;;5.85;100.00;103015.41;4908340;29;20093;-80
2023/12/18 09:03:36;;;;;;;32.58;16.50;;;;;;;5.88;100.00;103012.69;4894413;29;20028;-80
2023/12/18 09:06:02;;;;;;;37.17;17.45;;;;;;;5.87;100.00;103016.28;4893892;29;20103;-80
2023/12/18 09:08:28;;;;;;;34.78;17.92;;;;;;;5.90;100.00;103010.88;4900088;29;20034;-80
2023/12/18 09:10:54;;;;;;;32.80;16.55;;;;;;;5.92;100.00;103006.38;4892477;29;20031;-80
2023/12/18 09:13:19;;;;;;;35.15;17.52;;;;;;;5.93;100.00;103013.50;4904098;29;20124;-80
2023/12/18 09:15:44;;;;;;;35.83;17.08;;;;;;;5.99;100.00;103008.97;4907056;29;20040;-80
2023/12/18 09:18:10;;;;;;;33.08;16.13;;;;;;;5.99;100.00;103003.63;4900693;29;20060;-80
2023/12/18 09:20:35;;;;;;;29.75;16.15;;;;;;;6.00;100.00;103006.25;4881161;29;20806;-79
2023/12/18 09:23:00;;;;;;;35.35;16.70;;;;;;;6.03;100.00;103013.34;4880145;29;20033;-80
2023/12/18 09:25:26;;;;;;;33.22;17.40;;;;;;;6.04;100.00;103015.97;4900845;29;20035;-79
2023/12/18 09:27:51;;;;;;;35.55;17.73;;;;;;;6.05;100.00;103014.22;4907000;29;20020;-79
2023/12/18 09:30:16;;;;;;;35.17;17.40;;;;;;;6.05;100.00;103022.22;4929497;23;20044;-68
2023/12/18 09:32:42;;;;;;;29.40;16.40;;;;;;;6.07;100.00;103020.38;4888652;29;20040;-66
2023/12/18 09:35:07;;;;;;;35.85;17.35;;;;;;;6.09;100.00;103023.91;4896360;29;20025;-67
2023/12/18 09:37:32;;;;;;;32.45;16.73;;;;;;;6.10;100.00;103023.88;4881735;29;20077;-70
2023/12/18 09:39:58;;;;;;;34.17;17.27;;;;;;;6.13;100.00;103022.94;4885435;29;21493;-69
2023/12/18 09:42:23;;;;;;;34.95;17.48;;;;;;;6.12;100.00;103022.06;4889047;29;20040;-73
2023/12/18 09:44:49;;;;;;;30.20;16.55;;;;;;;6.12;100.00;103019.38;4891322;29;20131;-65
2023/12/18 09:47:15;;;;;;;32.17;17.92;;;;;;;6.14;100.00;103024.69;4900706;29;20107;-65
2023/12/18 09:49:40;;;;;;;34.70;17.83;;;;;;;6.15;100.00;103020.22;4897220;29;20044;-66
2023/12/18 09:52:08;;;;;;;32.28;17.33;;;;;;;6.16;100.00;103016.66;4879859;29;20038;-66
2023/12/18 09:54:34;;;;;;;37.97;17.98;;;;;;;6.16;100.00;103019.31;4895479;29;20022;-64
2023/12/18 09:57:02;;;;;;;31.67;17.52;;;;;;;6.15;100.00;103015.78;4899674;29;20028;-67
2023/12/18 09:59:28;;;;;;;31.42;16.58;;;;;;;6.17;100.00;103013.97;4893282;29;20391;-65
2023/12/18 10:01:56;;;;;;;32.95;17.63;;;;;;;6.16;100.00;103004.19;4874260;29;20028;-68
2023/12/18 10:04:21;;;;;;;32.55;16.38;;;;;;;6.14;100.00;103013.16;4870414;29;20083;-67
2023/12/18 10:06:49;;;;;;;29.42;16.13;;;;;;;6.13;100.00;103017.59;4891946;29;20489;-66
2023/12/18 10:09:15;;;;;;;34.97;17.05;;;;;;;6.14;100.00;103014.03;4887785;29;20032;-66
2023/12/18 10:11:45;;;;;;;30.95;16.30;;;;;;;6.16;100.00;103006.84;4890838;29;20036;-66
2023/12/18 10:14:14;;;;;;;40.80;18.45;;;;;;;6.19;100.00;103006.78;4881935;29;20073;-65
2023/12/18 10:16:41;;;;;;;33.47;17.05;;;;;;;6.19;100.00;103005.91;4889751;29;20039;-66
2023/12/18 10:19:08;;;;;;;34.90;18.58;;;;;;;6.18;100.00;103005.03;4884397;29;20044;-67
2023/12/18 10:21:33;;;;;;;35.22;17.13;;;;;;;6.20;100.00;103003.22;4895214;29;20052;-65
2023/12/18 10:23:58;;;;;;;33.88;16.38;;;;;;;6.18;100.00;103005.03;4894995;29;20064;-68
2023/12/18 10:26:24;;;;;;;34.95;17.60;;;;;;;6.16;100.00;103017.53;4879563;29;20020;-66
2023/12/18 10:28:52;;;;;;;35.60;16.05;;;;;;;6.14;100.00;103011.34;4893330;29;20263;-65
2023/12/18 10:31:19;;;;;;;35.33;16.63;;;;;;;6.11;100.00;103003.41;4896760;29;20056;-66
2023/12/18 10:33:44;;;;;;;34.50;17.17;;;;;;;6.13;100.00;103012.25;4868859;29;20065;-67
2023/12/18 10:36:10;;;;;;;30.73;16.30;;;;;;;6.14;100.00;103008.69;4875181;29;20478;-71
2023/12/18 10:38:38;;;;;;;30.75;16.55;;;;;;;6.15;100.00;102998.88;4893185;29;20035;-70
2023/12/18 10:41:04;;;;;;;31.25;16.38;;;;;;;6.11;100.00;102995.41;4901624;29;20031;-71
2023/12/18 10:43:32;;;;;;;35.42;17.92;;;;;;;6.11;100.00;102987.38;4894245;29;20392;-71
2023/12/18 10:45:57;;;;;;;41.55;17.13;;;;;;;6.10;100.00;102990.97;4875667;29;20052;-70
2023/12/18 10:48:24;;;;;;;32.80;17.70;;;;;;;6.08;100.00;102982.13;4900642;29;20066;-71
2023/12/18 10:50:53;;;;;;;31.40;16.92;;;;;;;6.07;100.00;102980.34;4882317;29;20071;-70
2023/12/18 10:53:21;;;;;;;35.40;16.73;;;;;;;6.09;100.00;102973.16;4892558;29;20024;-71
2023/12/18 10:55:47;;;;;;;34.58;17.08;;;;;;;6.05;100.00;102966.16;4887005;29;20768;-70
2023/12/18 10:58:15;;;;;;;37.05;17.13;;;;;;;6.03;100.00;102960.84;4882337;29;20062;-72
2023/12/18 11:00:43;;;;;;;32.33;17.05;;;;;;;6.06;100.00;102959.88;4909298;29;20641;-70
2023/12/18 11:03:12;;;;;;;31.05;16.30;;;;;;;6.05;100.00;102955.47;4880989;29;20519;-70